Time;durP1;ratioP1;P1;durP2;ratioP2;P2;SDS_P1;SDS_P2;PMS_P1;PMS_P2;Temp;Humidity;BMP_temperature;BMP_pressure;BME280_temperature;BME280_humidity;BME280_pressure;Samples;Min_cycle;Max_cycle;Signal;HPM_P1;HPM_P2
2023/06/16 00:01:34;;;;;;;7.60;6.87;;;14.00;93.30;;;;;;5033828;28;21142;-68
2023/06/16 00:04:04;;;;;;;7.73;6.90;;;14.00;92.90;;;;;;5032919;28;20452;-68
2023/06/16 00:06:32;;;;;;;7.60;6.43;;;13.90;93.00;;;;;;5033853;28;20432;-68
2023/06/16 00:09:01;;;;;;;7.90;7.20;;;13.80;92.90;;;;;;5033685;28;20848;-68
2023/06/16 00:11:30;;;;;;;8.30;7.60;;;13.80;94.40;;;;;;5033573;28;20457;-68
2023/06/16 00:13:58;;;;;;;7.50;6.90;;;13.70;93.50;;;;;;5032169;28;20492;-69
2023/06/16 00:16:26;;;;;;;8.90;7.80;;;13.70;94.30;;;;;;5033523;28;20502;-68
2023/06/16 00:18:57;;;;;;;8.37;6.73;;;13.60;95.80;;;;;;5032929;28;20838;-68
2023/06/16 00:21:29;;;;;;;8.53;7.50;;;13.70;93.90;;;;;;5033559;28;20475;-68
2023/06/16 00:23:57;;;;;;;8.30;7.50;;;13.70;94.30;;;;;;5031894;28;21016;-68
2023/06/16 00:26:26;;;;;;;9.17;8.30;;;13.90;94.20;;;;;;5033223;28;20454;-68
2023/06/16 00:28:54;;;;;;;8.57;7.77;;;13.90;93.90;;;;;;5033392;28;20436;-68
2023/06/16 00:31:22;;;;;;;9.20;8.40;;;13.90;93.80;;;;;;5032731;28;20491;-68
2023/06/16 00:33:50;;;;;;;8.27;7.47;;;13.80;95.20;;;;;;5032148;28;20443;-68
2023/06/16 00:36:18;;;;;;;9.10;8.20;;;13.70;95.60;;;;;;5032959;28;20897;-68
2023/06/16 00:38:48;;;;;;;9.10;8.30;;;13.70;96.50;;;;;;5032906;28;20534;-68
2023/06/16 00:41:16;;;;;;;7.93;7.23;;;13.70;97.30;;;;;;5032736;28;20563;-68
2023/06/16 00:43:44;;;;;;;9.27;8.50;;;13.70;97.00;;;;;;5031742;28;20531;-68
2023/06/16 00:46:21;;;;;;;8.57;7.77;;;13.60;97.50;;;;;;5032899;28;20483;-68
2023/06/16 00:48:49;;;;;;;8.43;7.63;;;13.50;97.70;;;;;;5033087;28;20440;-68
2023/06/16 00:51:17;;;;;;;7.97;7.20;;;13.40;97.50;;;;;;5047057;28;20460;-68
2023/06/16 00:53:45;;;;;;;9.80;7.80;;;13.30;98.10;;;;;;5051179;28;21023;-68
2023/06/16 00:56:14;;;;;;;8.53;7.63;;;13.30;98.50;;;;;;5052305;28;21200;-68
2023/06/16 00:58:43;;;;;;;8.43;7.73;;;13.20;98.60;;;;;;5052425;28;20537;-67
2023/06/16 01:01:12;;;;;;;8.63;7.60;;;13.20;98.50;;;;;;5052699;28;20499;-68
2023/06/16 01:03:40;;;;;;;9.87;8.97;;;13.10;97.80;;;;;;5051173;28;20491;-67
2023/06/16 01:06:17;;;;;;;8.40;7.50;;;13.00;98.30;;;;;;5052534;28;20452;-67
2023/06/16 01:08:55;;;;;;;8.27;7.60;;;13.00;98.30;;;;;;5051337;28;20443;-68
2023/06/16 01:11:35;;;;;;;8.87;8.07;;;12.90;99.30;;;;;;5052314;28;20987;-68
2023/06/16 01:14:08;;;;;;;9.50;8.50;;;12.90;99.90;;;;;;5050984;28;20485;-68
2023/06/16 01:16:36;;;;;;;8.73;7.83;;;12.80;99.20;;;;;;5052351;28;20489;-67
2023/06/16 01:19:09;;;;;;;8.90;8.10;;;12.70;98.70;;;;;;5052134;28;20469;-67
2023/06/16 01:21:45;;;;;;;9.03;8.20;;;12.80;99.80;;;;;;5052169;28;20468;-68
2023/06/16 01:24:18;;;;;;;8.43;7.73;;;12.80;99.80;;;;;;5051077;28;20437;-68
2023/06/16 01:26:49;;;;;;;8.60;7.90;;;12.70;99.90;;;;;;5051838;28;20937;-68
2023/06/16 01:29:21;;;;;;;9.80;8.70;;;12.70;99.90;;;;;;5052244;28;20451;-68
2023/06/16 01:31:52;;;;;;;9.53;8.57;;;12.80;99.90;;;;;;5051774;28;20464;-69
2023/06/16 01:34:21;;;;;;;9.00;8.20;;;12.80;99.90;;;;;;5051037;28;21000;-68
2023/06/16 01:36:50;;;;;;;11.03;8.37;;;12.70;99.90;;;;;;5051759;28;20891;-68
2023/06/16 01:39:21;;;;;;;9.50;8.60;;;12.60;99.90;;;;;;5052002;28;20487;-68
2023/06/16 01:41:50;;;;;;;9.30;8.37;;;12.50;99.90;;;;;;5051823;28;20664;-68
2023/06/16 01:44:19;;;;;;;10.40;8.57;;;12.60;99.90;;;;;;5050456;28;20443;-68
2023/06/16 01:46:49;;;;;;;10.23;9.40;;;12.60;99.80;;;;;;5051941;28;20450;-68
2023/06/16 01:49:18;;;;;;;10.70;9.73;;;12.50;99.90;;;;;;5051861;28;20447;-68
2023/06/16 01:51:46;;;;;;;9.30;8.50;;;12.40;99.90;;;;;;5051780;28;20466;-67
2023/06/16 01:54:14;;;;;;;10.50;8.47;;;12.40;99.90;;;;;;5049999;28;20810;-68
2023/06/16 01:56:43;;;;;;;9.53;8.60;;;12.40;99.90;;;;;;5051540;28;20534;-68
2023/06/16 01:59:11;;;;;;;13.40;9.40;;;12.50;99.90;;;;;;5051114;28;20581;-68
2023/06/16 02:01:45;;;;;;;9.90;9.00;;;12.50;99.90;;;;;;5051416;28;20468;-69
2023/06/16 02:04:17;;;;;;;9.83;8.40;;;12.50;99.50;;;;;;5049915;28;20486;-69
2023/06/16 02:06:49;;;;;;;10.07;9.17;;;12.60;99.40;;;;;;5051486;28;20439;-69
2023/06/16 02:09:21;;;;;;;10.30;9.20;;;12.60;99.90;;;;;;5051487;28;20451;-69
2023/06/16 02:11:53;;;;;;;10.13;9.13;;;12.50;99.90;;;;;;5051066;28;20466;-68
2023/06/16 02:14:21;;;;;;;8.90;8.00;;;12.60;99.90;;;;;;5050240;28;20548;-67
2023/06/16 02:16:52;;;;;;;8.70;7.90;;;12.50;99.60;;;;;;5051013;28;20444;-68
2023/06/16 02:19:20;;;;;;;9.33;8.53;;;12.50;99.60;;;;;;5050650;28;21059;-67
2023/06/16 02:21:48;;;;;;;9.10;8.20;;;12.50;99.90;;;;;;5050333;28;20502;-67
2023/06/16 02:24:16;;;;;;;8.67;7.90;;;12.70;99.20;;;;;;5050219;28;20442;-68
2023/06/16 02:26:44;;;;;;;8.87;8.13;;;12.70;98.70;;;;;;5050934;28;20533;-67
2023/06/16 02:29:14;;;;;;;8.23;7.43;;;12.70;99.90;;;;;;5051188;28;20467;-68
2023/06/16 02:31:46;;;;;;;9.13;8.30;;;12.70;98.90;;;;;;5051270;28;20829;-68
2023/06/16 02:34:15;;;;;;;8.37;7.57;;;12.80;98.50;;;;;;5049548;28;20937;-68
2023/06/16 02:36:43;;;;;;;9.80;9.00;;;12.80;98.50;;;;;;5051218;28;21146;-67
2023/06/16 02:39:12;;;;;;;8.90;8.20;;;12.80;99.90;;;;;;5050808;28;20897;-68
2023/06/16 02:41:43;;;;;;;10.80;9.80;;;12.90;99.90;;;;;;5050886;28;20459;-68
2023/06/16 02:44:11;;;;;;;9.27;8.47;;;12.90;99.90;;;;;;5049529;28;20445;-68
2023/06/16 02:46:40;;;;;;;9.17;8.37;;;13.00;99.90;;;;;;5050951;28;20528;-68
2023/06/16 02:49:08;;;;;;;10.07;9.13;;;13.20;99.90;;;;;;5050372;28;20501;-68
2023/06/16 02:51:36;;;;;;;9.53;8.70;;;13.20;99.90;;;;;;5050369;28;20506;-68
2023/06/16 02:54:06;;;;;;;9.63;8.83;;;13.20;99.90;;;;;;5049147;28;20543;-68
2023/06/16 02:56:34;;;;;;;9.30;8.50;;;13.10;99.90;;;;;;5050384;28;20443;-68
2023/06/16 02:59:02;;;;;;;10.20;8.50;;;13.30;99.10;;;;;;5050219;28;20545;-68
2023/06/16 03:01:30;;;;;;;9.57;8.70;;;13.50;99.30;;;;;;5050152;28;20473;-68
2023/06/16 03:04:00;;;;;;;9.23;8.43;;;13.60;99.20;;;;;;5049429;28;20445;-68
2023/06/16 03:06:29;;;;;;;9.27;8.47;;;13.60;99.70;;;;;;5050106;28;21009;-68
2023/06/16 03:08:57;;;;;;;11.67;9.27;;;13.50;99.20;;;;;;5050597;28;20440;-68
2023/06/16 03:11:25;;;;;;;8.73;7.83;;;13.60;97.80;;;;;;5049978;28;20464;-68
2023/06/16 03:13:53;;;;;;;10.37;9.07;;;13.50;97.80;;;;;;5048802;28;20919;-69
2023/06/16 03:16:22;;;;;;;8.40;7.60;;;13.50;98.10;;;;;;5050179;28;20448;-69
2023/06/16 03:18:51;;;;;;;9.23;8.43;;;13.40;97.90;;;;;;5049990;28;20571;-69
2023/06/16 03:21:20;;;;;;;9.37;8.47;;;13.50;98.00;;;;;;5050040;28;20521;-68
2023/06/16 03:23:50;;;;;;;9.40;8.50;;;13.50;98.00;;;;;;5048613;28;20436;-69
2023/06/16 03:26:19;;;;;;;9.27;8.23;;;13.50;98.10;;;;;;5049906;28;20468;-68
2023/06/16 03:28:47;;;;;;;9.00;8.20;;;13.60;97.40;;;;;;5049673;28;20448;-69
2023/06/16 03:31:15;;;;;;;9.37;8.50;;;13.50;98.50;;;;;;5049727;28;20547;-69
2023/06/16 03:33:46;;;;;;;11.37;10.20;;;13.60;99.90;;;;;;5048356;28;20941;-69
2023/06/16 03:36:14;;;;;;;9.50;8.70;;;13.60;98.90;;;;;;5049917;28;20447;-69
2023/06/16 03:38:44;;;;;;;9.07;8.17;;;13.50;99.90;;;;;;5049690;28;20926;-68
2023/06/16 03:41:12;;;;;;;9.57;8.57;;;13.40;98.80;;;;;;5049971;28;20464;-68
2023/06/16 03:43:40;;;;;;;10.90;9.33;;;13.20;99.10;;;;;;5048823;28;20526;-69
2023/06/16 03:46:08;;;;;;;10.47;9.47;;;13.20;99.90;;;;;;5049817;28;20519;-68
2023/06/16 03:48:36;;;;;;;10.53;9.57;;;13.20;99.90;;;;;;5049829;28;20455;-69
2023/06/16 03:51:05;;;;;;;13.83;9.90;;;13.30;99.90;;;;;;5049385;28;20463;-69
2023/06/16 03:53:33;;;;;;;10.20;9.30;;;13.20;99.90;;;;;;5048545;28;20462;-69
2023/06/16 03:56:02;;;;;;;11.13;10.03;;;13.10;99.90;;;;;;5049428;28;20449;-68
2023/06/16 03:58:31;;;;;;;9.67;8.73;;;13.10;99.90;;;;;;5049691;28;20440;-69
2023/06/16 04:00:59;;;;;;;11.33;9.60;;;13.10;99.90;;;;;;5049245;28;20495;-68
2023/06/16 04:03:27;;;;;;;11.50;10.50;;;13.00;99.90;;;;;;5048286;28;20444;-68
2023/06/16 04:05:55;;;;;;;10.43;9.40;;;12.90;99.90;;;;;;5049471;28;20468;-69
2023/06/16 04:08:23;;;;;;;13.90;9.20;;;12.90;99.90;;;;;;5049310;28;20517;-69
2023/06/16 04:10:57;;;;;;;10.27;9.30;;;12.90;99.90;;;;;;5049606;28;20874;-69
2023/06/16 04:13:26;;;;;;;10.90;9.90;;;13.00;99.90;;;;;;5048292;28;20444;-69
2023/06/16 04:15:54;;;;;;;9.77;8.80;;;13.00;99.90;;;;;;5049646;28;20446;-69
2023/06/16 04:18:22;;;;;;;10.00;9.10;;;13.10;99.90;;;;;;5049291;28;20547;-71
2023/06/16 04:20:50;;;;;;;9.97;9.10;;;13.20;99.90;;;;;;5049844;28;20490;-69
2023/06/16 04:23:19;;;;;;;9.93;8.90;;;13.20;99.90;;;;;;5048470;28;20454;-70
2023/06/16 04:25:47;;;;;;;9.50;8.67;;;13.30;99.90;;;;;;5049188;28;20449;-70
2023/06/16 04:28:17;;;;;;;10.20;8.97;;;13.30;99.90;;;;;;5049357;28;20965;-69
2023/06/16 04:30:47;;;;;;;10.03;9.03;;;13.40;99.90;;;;;;5048997;28;20897;-70
2023/06/16 04:33:15;;;;;;;9.43;8.50;;;13.50;99.70;;;;;;5052793;28;20452;-69
2023/06/16 04:35:43;;;;;;;12.03;9.67;;;13.60;99.90;;;;;;5066732;28;20959;-68
2023/06/16 04:38:12;;;;;;;11.83;8.80;;;13.60;99.90;;;;;;5069234;28;20442;-69
2023/06/16 04:40:41;;;;;;;10.00;9.13;;;13.70;98.10;;;;;;5068949;28;20479;-67
2023/06/16 04:43:09;;;;;;;9.70;8.90;;;13.70;98.20;;;;;;5068627;28;20500;-69
2023/06/16 04:45:37;;;;;;;9.37;8.47;;;13.80;99.20;;;;;;5073013;28;20496;-70
2023/06/16 04:48:06;;;;;;;12.27;11.07;;;13.90;99.90;;;;;;5072618;28;20449;-69
2023/06/16 04:50:34;;;;;;;10.70;9.70;;;13.90;99.90;;;;;;5069806;28;20836;-69
2023/06/16 04:53:03;;;;;;;9.10;8.30;;;14.00;98.90;;;;;;5051185;28;20451;-67
2023/06/16 04:55:31;;;;;;;9.90;9.00;;;14.20;99.40;;;;;;5052678;28;20483;-71
2023/06/16 04:57:59;;;;;;;9.73;8.77;;;14.20;99.10;;;;;;5052451;28;20444;-67
2023/06/16 05:00:29;;;;;;;11.30;10.00;;;14.30;98.70;;;;;;5052611;28;20513;-71
2023/06/16 05:02:57;;;;;;;11.67;10.53;;;14.40;99.20;;;;;;5046302;28;20449;-68
2023/06/16 05:05:27;;;;;;;11.37;10.30;;;14.40;99.00;;;;;;5037637;28;20517;-72
2023/06/16 05:07:56;;;;;;;10.87;9.93;;;14.40;98.70;;;;;;5043034;28;20954;-70
2023/06/16 05:10:24;;;;;;;11.20;10.20;;;14.50;97.00;;;;;;5039771;28;20491;-72
2023/06/16 05:12:52;;;;;;;11.40;10.30;;;14.70;96.20;;;;;;5031098;28;20947;-73
2023/06/16 05:15:20;;;;;;;12.40;10.13;;;14.80;97.50;;;;;;5032153;28;20869;-72
2023/06/16 05:17:48;;;;;;;12.77;11.50;;;14.90;97.50;;;;;;5032484;28;20453;-72
2023/06/16 05:20:16;;;;;;;10.43;9.53;;;15.00;97.40;;;;;;5032117;28;20557;-73
2023/06/16 05:22:46;;;;;;;10.73;9.83;;;14.90;98.00;;;;;;5030880;28;20456;-73
2023/06/16 05:25:14;;;;;;;10.30;9.33;;;15.00;97.90;;;;;;5032150;28;20897;-72
2023/06/16 05:27:42;;;;;;;9.77;8.97;;;15.10;96.80;;;;;;5032182;28;20439;-72
2023/06/16 05:30:11;;;;;;;12.17;11.07;;;15.30;95.90;;;;;;5032442;28;20442;-71
2023/06/16 05:32:39;;;;;;;10.93;9.83;;;15.30;94.40;;;;;;5031183;28;20441;-73
2023/06/16 05:35:08;;;;;;;10.47;8.57;;;15.40;95.00;;;;;;5032500;28;20529;-73
2023/06/16 05:37:36;;;;;;;9.33;8.43;;;15.50;94.30;;;;;;5032139;28;20830;-72
2023/06/16 05:40:07;;;;;;;11.53;9.43;;;15.60;92.90;;;;;;5032203;28;20924;-73
2023/06/16 05:42:35;;;;;;;13.20;10.43;;;15.70;92.10;;;;;;5031103;28;20514;-71
2023/06/16 05:45:03;;;;;;;12.00;8.70;;;15.80;91.10;;;;;;5032188;28;20445;-72
2023/06/16 05:47:31;;;;;;;10.90;9.90;;;15.90;90.90;;;;;;5032002;28;20456;-72
2023/06/16 05:49:59;;;;;;;9.73;8.27;;;16.00;89.30;;;;;;5031677;28;20498;-72
2023/06/16 05:52:29;;;;;;;10.13;9.00;;;16.30;89.10;;;;;;5031051;28;20449;-72
2023/06/16 05:54:58;;;;;;;10.37;9.27;;;16.40;87.90;;;;;;5031145;28;20476;-72
2023/06/16 05:57:27;;;;;;;8.77;7.93;;;16.40;88.30;;;;;;5031689;28;20438;-72
2023/06/16 05:59:55;;;;;;;13.00;8.27;;;16.60;84.70;;;;;;5031685;28;20963;-72
2023/06/16 06:02:25;;;;;;;10.50;7.83;;;16.70;86.20;;;;;;5030649;28;20503;-72
2023/06/16 06:04:53;;;;;;;9.63;8.07;;;16.80;84.40;;;;;;5031418;28;20440;-73
2023/06/16 06:07:21;;;;;;;11.67;7.63;;;16.90;81.70;;;;;;5031773;28;20449;-73
2023/06/16 06:09:49;;;;;;;11.30;8.67;;;17.00;81.90;;;;;;5031527;28;20480;-73
2023/06/16 06:12:17;;;;;;;11.93;8.53;;;17.20;81.30;;;;;;5033169;28;21064;-72
2023/06/16 06:14:47;;;;;;;8.70;7.87;;;17.20;83.50;;;;;;5050660;28;20490;-73
2023/06/16 06:17:15;;;;;;;9.90;7.97;;;17.30;83.80;;;;;;5051386;28;20895;-73
2023/06/16 06:19:43;;;;;;;9.53;8.60;;;17.30;81.20;;;;;;5051319;28;20472;-73
2023/06/16 06:22:11;;;;;;;9.57;8.57;;;17.40;81.50;;;;;;5050560;28;20480;-73
2023/06/16 06:24:39;;;;;;;12.10;8.00;;;17.50;81.80;;;;;;5050279;28;20535;-73
2023/06/16 06:27:10;;;;;;;9.27;8.40;;;17.50;79.20;;;;;;5050931;28;20557;-73
2023/06/16 06:29:38;;;;;;;9.93;8.93;;;17.60;78.90;;;;;;5050986;28;20440;-73
2023/06/16 06:32:11;;;;;;;10.57;8.30;;;17.70;76.80;;;;;;5050418;28;21134;-73
2023/06/16 06:34:39;;;;;;;9.63;8.70;;;17.80;77.30;;;;;;5050317;28;20872;-73
2023/06/16 06:37:07;;;;;;;12.00;7.90;;;18.00;76.20;;;;;;5050833;28;20440;-73
2023/06/16 06:39:35;;;;;;;13.00;9.20;;;18.00;76.00;;;;;;5050711;28;20439;-73
2023/06/16 06:42:04;;;;;;;9.30;8.40;;;18.20;74.50;;;;;;5050143;28;20480;-73
2023/06/16 06:44:32;;;;;;;9.40;8.50;;;18.30;76.10;;;;;;5031125;28;20444;-73
2023/06/16 06:47:00;;;;;;;10.80;8.97;;;18.50;72.60;;;;;;5050778;28;20957;-73
2023/06/16 06:49:29;;;;;;;9.53;8.40;;;18.80;71.20;;;;;;5050679;28;20449;-73
2023/06/16 06:51:57;;;;;;;11.53;8.47;;;19.00;71.20;;;;;;5050587;28;20502;-73
2023/06/16 06:54:25;;;;;;;9.47;8.40;;;19.10;70.60;;;;;;5049197;28;20539;-73
2023/06/16 06:56:53;;;;;;;9.67;8.67;;;19.20;70.50;;;;;;5050285;28;20420;-73
2023/06/16 06:59:21;;;;;;;8.60;7.80;;;19.20;71.50;;;;;;5050401;28;20538;-73
2023/06/16 07:01:49;;;;;;;8.70;7.60;;;19.30;70.00;;;;;;5050427;28;20482;-73
2023/06/16 07:04:17;;;;;;;10.07;9.10;;;19.30;72.80;;;;;;5049375;28;20433;-73
2023/06/16 07:06:47;;;;;;;8.70;7.80;;;19.30;70.50;;;;;;5049750;28;20436;-73
2023/06/16 07:09:15;;;;;;;9.10;8.20;;;19.30;73.90;;;;;;5049907;28;20444;-73
2023/06/16 07:11:57;;;;;;;10.03;7.83;;;19.40;70.60;;;;;;5050146;28;20482;-73
2023/06/16 07:14:26;;;;;;;9.33;8.40;;;19.60;70.50;;;;;;5048993;28;20436;-73
2023/06/16 07:16:54;;;;;;;13.77;9.80;;;19.70;69.30;;;;;;5049803;28;20466;-73
2023/06/16 07:19:23;;;;;;;11.80;8.80;;;19.90;70.00;;;;;;5050030;28;20448;-73
2023/06/16 07:21:53;;;;;;;9.93;7.63;;;20.00;68.00;;;;;;5049734;28;20583;-73
2023/06/16 07:24:21;;;;;;;12.33;8.43;;;20.00;68.40;;;;;;5048590;28;20440;-73
2023/06/16 07:26:49;;;;;;;9.90;7.93;;;20.20;69.30;;;;;;5050252;28;20448;-71
2023/06/16 07:29:17;;;;;;;9.13;7.90;;;20.30;67.40;;;;;;5049951;28;20444;-73
2023/06/16 07:31:45;;;;;;;10.70;8.17;;;20.50;67.40;;;;;;5049849;28;20987;-72
2023/06/16 07:34:13;;;;;;;8.10;7.30;;;20.70;67.00;;;;;;5048537;28;20448;-72
2023/06/16 07:36:42;;;;;;;9.90;8.40;;;20.90;65.80;;;;;;5049971;28;20450;-72
2023/06/16 07:39:11;;;;;;;9.50;8.33;;;20.90;67.50;;;;;;5049849;28;20444;-72
2023/06/16 07:41:39;;;;;;;7.47;6.77;;;20.90;65.90;;;;;;5049708;28;20488;-72
2023/06/16 07:44:07;;;;;;;7.97;6.90;;;21.00;60.20;;;;;;5048606;28;20436;-72
2023/06/16 07:46:35;;;;;;;7.90;7.13;;;21.10;59.60;;;;;;5049600;28;20440;-72
2023/06/16 07:49:03;;;;;;;8.70;7.10;;;21.20;60.10;;;;;;5049727;28;20440;-72
2023/06/16 07:51:31;;;;;;;9.20;7.57;;;21.20;62.30;;;;;;5049894;28;20550;-72
2023/06/16 07:54:02;;;;;;;8.57;7.70;;;21.30;60.10;;;;;;5048322;28;20509;-73
2023/06/16 07:56:31;;;;;;;7.30;6.60;;;21.40;59.00;;;;;;5049670;28;20531;-72
2023/06/16 07:58:59;;;;;;;7.07;6.40;;;21.50;59.50;;;;;;5049840;28;20459;-72
2023/06/16 08:01:27;;;;;;;8.98;8.07;;;21.60;59.20;;;;;;5049099;28;20509;-72
2023/06/16 08:03:56;;;;;;;7.63;6.97;;;21.70;59.40;;;;;;5048714;28;20231;-72
2023/06/16 08:06:25;;;;;;;12.43;6.27;;;21.80;58.10;;;;;;5049860;28;20570;-72
2023/06/16 08:08:53;;;;;;;7.10;6.40;;;22.00;57.80;;;;;;5050120;28;20864;-72
2023/06/16 08:11:22;;;;;;;6.77;5.90;;;22.30;56.40;;;;;;5049697;28;20522;-72
2023/06/16 08:13:52;;;;;;;7.07;6.50;;;22.30;54.80;;;;;;5048086;28;21008;-72
2023/06/16 08:16:20;;;;;;;6.33;5.67;;;22.40;54.50;;;;;;5049752;28;20447;-72
2023/06/16 08:18:50;;;;;;;6.40;4.80;;;22.50;53.60;;;;;;5051475;28;20452;-72
2023/06/16 08:21:18;;;;;;;5.03;4.53;;;22.60;50.80;;;;;;5053855;28;20460;-73
2023/06/16 08:23:47;;;;;;;7.80;5.50;;;22.70;49.30;;;;;;5052368;28;20883;-72
2023/06/16 08:26:15;;;;;;;5.70;5.20;;;22.80;46.70;;;;;;5053859;28;20448;-72
2023/06/16 08:28:44;;;;;;;6.30;5.57;;;22.90;47.50;;;;;;5054326;28;20446;-73
2023/06/16 08:31:14;;;;;;;6.13;5.50;;;23.00;47.40;;;;;;5055276;28;20548;-73
2023/06/16 08:33:42;;;;;;;7.13;5.93;;;23.30;47.60;;;;;;5054978;28;20443;-73
2023/06/16 08:36:10;;;;;;;5.87;5.37;;;23.30;46.10;;;;;;5056087;28;20864;-73
2023/06/16 08:38:38;;;;;;;6.13;4.73;;;23.50;47.50;;;;;;5056138;28;20449;-73
2023/06/16 08:41:10;;;;;;;5.93;5.43;;;23.50;45.10;;;;;;5053452;28;20464;-73
2023/06/16 08:43:38;;;;;;;6.80;5.37;;;23.80;45.50;;;;;;5051655;28;20969;-73
2023/06/16 08:46:08;;;;;;;5.57;5.07;;;23.80;42.70;;;;;;5053355;28;20470;-73
2023/06/16 08:48:38;;;;;;;5.97;5.33;;;23.90;43.40;;;;;;5053017;28;20446;-73
2023/06/16 08:51:13;;;;;;;5.97;5.47;;;24.10;42.70;;;;;;5052711;28;20545;-72
2023/06/16 08:53:44;;;;;;;6.13;4.60;;;24.10;42.90;;;;;;5051707;28;20451;-73
2023/06/16 08:56:12;;;;;;;5.83;4.37;;;24.20;39.40;;;;;;5053073;28;20534;-73
2023/06/16 08:58:42;;;;;;;4.80;4.33;;;24.30;38.40;;;;;;5052872;28;20440;-73
2023/06/16 09:01:10;;;;;;;4.17;3.80;;;24.40;39.40;;;;;;5052604;28;20468;-72
2023/06/16 09:03:39;;;;;;;7.43;4.90;;;24.40;37.00;;;;;;5051134;28;20559;-73
2023/06/16 09:06:10;;;;;;;6.20;4.47;;;24.40;38.40;;;;;;5052527;28;21098;-72
2023/06/16 09:08:38;;;;;;;4.80;4.40;;;24.60;37.80;;;;;;5052834;28;20528;-73
2023/06/16 09:11:08;;;;;;;6.90;4.63;;;24.60;35.80;;;;;;5052492;28;21153;-72
2023/06/16 09:13:41;;;;;;;5.10;4.50;;;24.60;36.70;;;;;;5051219;28;20931;-73
2023/06/16 09:16:09;;;;;;;8.37;4.30;;;24.70;37.00;;;;;;5052562;28;20448;-73
2023/06/16 09:18:44;;;;;;;7.63;4.90;;;24.80;36.30;;;;;;5052422;28;20440;-72
2023/06/16 09:21:13;;;;;;;4.90;4.50;;;24.90;35.30;;;;;;5052209;28;20483;-74
2023/06/16 09:23:43;;;;;;;5.00;4.50;;;24.90;35.40;;;;;;5051182;28;20471;-72
2023/06/16 09:26:12;;;;;;;4.57;4.17;;;24.90;33.40;;;;;;5053392;28;20440;-73
2023/06/16 09:28:40;;;;;;;6.70;4.20;;;24.90;34.00;;;;;;5053751;28;20444;-73
2023/06/16 09:31:11;;;;;;;4.97;4.50;;;25.00;35.10;;;;;;5054145;28;21041;-73
2023/06/16 09:33:41;;;;;;;6.03;4.70;;;25.10;36.00;;;;;;5052951;28;20441;-72
2023/06/16 09:36:10;;;;;;;5.83;5.20;;;25.20;34.80;;;;;;5053385;28;20432;-73
2023/06/16 09:38:39;;;;;;;6.43;4.77;;;25.30;35.50;;;;;;5052843;28;20448;-73
2023/06/16 09:41:10;;;;;;;6.23;5.63;;;25.30;35.40;;;;;;5052534;28;20464;-73
2023/06/16 09:43:39;;;;;;;5.07;4.60;;;25.50;35.20;;;;;;5051579;28;20467;-73
2023/06/16 09:46:11;;;;;;;6.10;5.37;;;25.60;36.70;;;;;;5052950;28;20444;-73
2023/06/16 09:48:48;;;;;;;5.40;4.87;;;25.70;34.50;;;;;;5052909;28;20468;-73
2023/06/16 09:51:18;;;;;;;5.73;5.13;;;25.80;35.60;;;;;;5052712;28;20517;-73
2023/06/16 09:53:47;;;;;;;7.10;4.80;;;25.80;35.00;;;;;;5050505;28;20546;-73
2023/06/16 09:56:15;;;;;;;6.53;5.60;;;26.10;35.60;;;;;;5051924;28;20449;-73
2023/06/16 09:58:44;;;;;;;5.73;5.23;;;26.60;35.70;;;;;;5051777;28;20444;-72
2023/06/16 10:01:14;;;;;;;6.47;5.17;;;26.80;34.20;;;;;;5051623;28;20452;-73
2023/06/16 10:03:43;;;;;;;6.40;5.80;;;26.80;33.60;;;;;;5050313;28;20891;-73
2023/06/16 10:06:18;;;;;;;15.67;5.93;;;26.80;34.10;;;;;;5051334;28;20440;-73
2023/06/16 10:08:48;;;;;;;5.33;4.83;;;26.80;35.90;;;;;;5051594;28;20435;-73
2023/06/16 10:11:18;;;;;;;6.97;4.87;;;26.40;34.80;;;;;;5051381;28;20463;-72
2023/06/16 10:13:52;;;;;;;5.47;5.07;;;25.80;36.00;;;;;;5050281;28;20440;-72
2023/06/16 10:16:25;;;;;;;5.93;5.33;;;25.60;35.60;;;;;;5051311;28;20526;-73
2023/06/16 10:18:57;;;;;;;6.10;5.50;;;25.40;36.60;;;;;;5051228;28;20650;-72
2023/06/16 10:21:27;;;;;;;5.30;4.80;;;25.60;36.00;;;;;;5051158;28;20463;-73
2023/06/16 10:23:56;;;;;;;7.67;4.93;;;25.70;35.50;;;;;;5050138;28;20471;-73
2023/06/16 10:26:24;;;;;;;5.17;4.77;;;26.70;34.00;;;;;;5051250;28;20838;-73
2023/06/16 10:28:54;;;;;;;5.07;4.67;;;27.60;36.70;;;;;;5051111;28;20448;-73
2023/06/16 10:31:27;;;;;;;6.13;5.17;;;28.60;33.60;;;;;;5051161;28;20460;-73
2023/06/16 10:33:56;;;;;;;7.73;5.50;;;28.60;31.80;;;;;;5049798;28;20489;-72
2023/06/16 10:36:30;;;;;;;6.00;5.47;;;28.80;30.70;;;;;;5050733;28;20483;-72
2023/06/16 10:39:01;;;;;;;4.43;4.03;;;28.80;29.60;;;;;;5050867;28;20435;-72
2023/06/16 10:41:30;;;;;;;4.40;4.10;;;29.10;29.30;;;;;;5049892;28;20503;-74
2023/06/16 10:44:25;;;;;;;4.57;4.00;;;29.30;30.40;;;;;;5049299;28;20467;-73
2023/06/16 10:47:25;;;;;;;5.07;4.67;;;30.20;29.20;;;;;;5050734;28;20444;-73
2023/06/16 10:49:55;;;;;;;5.27;4.77;;;30.10;27.50;;;;;;5050444;28;20448;-72
2023/06/16 10:52:35;;;;;;;5.87;4.60;;;29.50;27.90;;;;;;5049892;28;20491;-72
2023/06/16 10:55:33;;;;;;;6.17;5.27;;;29.10;28.50;;;;;;5049867;28;20455;-73
2023/06/16 10:58:26;;;;;;;4.80;4.40;;;28.90;29.00;;;;;;5047349;28;20443;-73
2023/06/16 11:00:59;;;;;;;6.30;4.70;;;29.20;29.10;;;;;;5050119;28;20467;-73
2023/06/16 11:03:35;;;;;;;5.23;4.83;;;29.20;27.80;;;;;;5049067;28;20486;-73
2023/06/16 11:06:05;;;;;;;6.03;4.50;;;29.10;28.80;;;;;;5050272;28;20451;-72
2023/06/16 11:08:49;;;;;;;4.60;4.20;;;29.00;28.90;;;;;;5050117;28;21102;-73
2023/06/16 11:11:18;;;;;;;6.63;4.83;;;28.90;29.60;;;;;;5050186;28;20464;-72
2023/06/16 11:13:47;;;;;;;8.10;5.20;;;28.80;28.50;;;;;;5049017;28;20444;-72
2023/06/16 11:16:15;;;;;;;6.83;4.40;;;28.60;29.30;;;;;;5050131;28;20528;-73
2023/06/16 11:18:44;;;;;;;6.27;4.87;;;28.70;29.40;;;;;;5050090;28;20436;-73
2023/06/16 11:21:12;;;;;;;6.03;5.43;;;28.70;29.60;;;;;;5049806;28;20460;-72
2023/06/16 11:23:43;;;;;;;6.20;4.63;;;28.50;29.00;;;;;;5048568;28;20845;-73
2023/06/16 11:26:14;;;;;;;5.50;5.00;;;28.80;28.70;;;;;;5049983;28;20432;-73
2023/06/16 11:28:44;;;;;;;5.30;4.80;;;29.30;29.10;;;;;;5049787;28;20440;-72
2023/06/16 11:31:14;;;;;;;7.37;5.07;;;29.40;28.30;;;;;;5049598;28;20471;-71
2023/06/16 11:33:42;;;;;;;7.23;5.63;;;28.50;28.60;;;;;;5048434;28;20475;-72
2023/06/16 11:36:18;;;;;;;8.37;5.23;;;27.40;29.20;;;;;;5049505;28;20793;-73
2023/06/16 11:38:49;;;;;;;4.80;4.40;;;26.80;30.60;;;;;;5049640;28;20523;-72
2023/06/16 11:41:18;;;;;;;5.67;5.17;;;27.50;31.30;;;;;;5049509;28;20467;-71
2023/06/16 11:43:47;;;;;;;5.10;4.70;;;28.10;29.80;;;;;;5048261;28;20504;-73
2023/06/16 11:46:19;;;;;;;5.80;5.30;;;28.80;29.30;;;;;;5035249;28;21005;-72
2023/06/16 11:48:48;;;;;;;6.63;4.80;;;29.50;28.60;;;;;;5028445;28;20437;-72
2023/06/16 11:51:16;;;;;;;5.53;5.03;;;29.90;28.60;;;;;;5039974;28;20550;-72
2023/06/16 11:53:45;;;;;;;8.83;5.97;;;29.50;28.00;;;;;;5039412;28;20448;-72
2023/06/16 11:56:16;;;;;;;7.90;5.80;;;29.00;28.60;;;;;;5040626;28;20474;-72
2023/06/16 11:58:48;;;;;;;5.03;4.60;;;29.30;29.00;;;;;;5039502;28;20452;-71
2023/06/16 12:01:17;;;;;;;8.07;5.90;;;29.40;28.10;;;;;;5035251;28;20503;-70
2023/06/16 12:03:47;;;;;;;6.70;5.83;;;29.50;28.10;;;;;;5037530;28;20475;-72
2023/06/16 12:06:19;;;;;;;6.27;5.67;;;29.50;28.00;;;;;;4975361;28;20505;-72
2023/06/16 12:08:48;;;;;;;6.10;5.40;;;29.70;27.70;;;;;;4977943;28;20853;-69
2023/06/16 12:11:23;;;;;;;5.93;4.90;;;29.80;28.30;;;;;;4973908;28;21347;-69
2023/06/16 12:13:54;;;;;;;6.40;5.30;;;29.70;28.70;;;;;;4975112;28;20482;-69
2023/06/16 12:16:23;;;;;;;7.50;5.20;;;29.40;29.00;;;;;;4977280;28;20442;-68
2023/06/16 12:18:53;;;;;;;7.80;5.27;;;29.80;29.10;;;;;;4977342;28;20941;-68
2023/06/16 12:21:23;;;;;;;5.73;4.90;;;30.20;27.40;;;;;;4987530;28;20505;-69
2023/06/16 12:23:52;;;;;;;5.10;4.60;;;30.70;27.00;;;;;;4994876;28;20932;-69
2023/06/16 12:26:33;;;;;;;5.70;5.20;;;31.30;27.10;;;;;;5028970;28;20511;-69
2023/06/16 12:29:09;;;;;;;6.17;5.67;;;31.20;26.30;;;;;;5029633;28;20451;-71
2023/06/16 12:31:37;;;;;;;6.10;5.50;;;31.00;27.00;;;;;;5029380;28;21139;-70
2023/06/16 12:34:05;;;;;;;6.13;5.63;;;30.90;26.90;;;;;;5028117;28;20437;-69
2023/06/16 12:36:41;;;;;;;6.03;5.53;;;30.40;27.40;;;;;;5029559;28;21249;-69
2023/06/16 12:39:16;;;;;;;5.50;5.00;;;30.50;26.50;;;;;;5029111;28;20453;-69
2023/06/16 12:41:57;;;;;;;6.63;5.77;;;30.90;26.70;;;;;;5029837;28;20540;-70
2023/06/16 12:44:26;;;;;;;7.83;5.50;;;31.50;26.00;;;;;;5028368;28;20476;-71
2023/06/16 12:46:54;;;;;;;6.10;5.50;;;31.50;27.10;;;;;;5029553;28;20595;-70
2023/06/16 12:49:22;;;;;;;6.23;5.63;;;31.10;27.00;;;;;;5029392;28;20452;-70
2023/06/16 12:51:50;;;;;;;5.67;5.17;;;30.00;27.50;;;;;;5029158;28;20592;-70
2023/06/16 12:54:19;;;;;;;6.40;5.80;;;29.40;28.50;;;;;;5028146;28;20539;-68
2023/06/16 12:56:47;;;;;;;6.67;6.00;;;29.90;28.10;;;;;;5029322;28;20499;-69